sensor_id;sensor_type;location;lat;lon;timestamp;P1;durP1;ratioP1;P2;durP2;ratioP2
60908;SDS011;46780;48.128;-1.704;2022-08-19T00:00:32;14.70;;;5.13;;
60908;SDS011;46780;48.128;-1.704;2022-08-19T00:02:58;14.02;;;5.40;;
60908;SDS011;46780;48.128;-1.704;2022-08-19T00:05:25;11.40;;;5.10;;
60908;SDS011;46780;48.128;-1.704;2022-08-19T00:07:53;11.05;;;4.90;;
60908;SDS011;46780;48.128;-1.704;2022-08-19T00:10:20;14.32;;;4.65;;
60908;SDS011;46780;48.128;-1.704;2022-08-19T00:12:46;13.48;;;4.70;;
60908;SDS011;46780;48.128;-1.704;2022-08-19T00:15:15;10.27;;;4.47;;
60908;SDS011;46780;48.128;-1.704;2022-08-19T00:17:43;11.82;;;4.20;;
60908;SDS011;46780;48.128;-1.704;2022-08-19T00:20:15;11.65;;;4.35;;
60908;SDS011;46780;48.128;-1.704;2022-08-19T00:22:46;12.95;;;4.65;;
60908;SDS011;46780;48.128;-1.704;2022-08-19T00:25:15;12.45;;;4.03;;
60908;SDS011;46780;48.128;-1.704;2022-08-19T00:27:42;8.95;;;4.20;;
60908;SDS011;46780;48.128;-1.704;2022-08-19T00:30:09;9.90;;;4.22;;
60908;SDS011;46780;48.128;-1.704;2022-08-19T00:32:36;10.88;;;3.85;;
60908;SDS011;46780;48.128;-1.704;2022-08-19T00:35:03;11.30;;;3.90;;
60908;SDS011;46780;48.128;-1.704;2022-08-19T00:37:30;12.20;;;4.15;;
60908;SDS011;46780;48.128;-1.704;2022-08-19T00:39:56;12.18;;;3.92;;
60908;SDS011;46780;48.128;-1.704;2022-08-19T00:42:24;11.55;;;4.20;;
60908;SDS011;46780;48.128;-1.704;2022-08-19T00:44:51;9.85;;;4.00;;
60908;SDS011;46780;48.128;-1.704;2022-08-19T00:47:17;11.43;;;4.40;;
60908;SDS011;46780;48.128;-1.704;2022-08-19T00:49:44;10.40;;;3.97;;
60908;SDS011;46780;48.128;-1.704;2022-08-19T00:52:14;10.70;;;3.95;;
60908;SDS011;46780;48.128;-1.704;2022-08-19T00:54:43;17.38;;;4.25;;
60908;SDS011;46780;48.128;-1.704;2022-08-19T00:57:12;8.88;;;4.13;;
60908;SDS011;46780;48.128;-1.704;2022-08-19T00:59:43;9.48;;;3.88;;
60908;SDS011;46780;48.128;-1.704;2022-08-19T01:02:12;12.45;;;4.05;;
60908;SDS011;46780;48.128;-1.704;2022-08-19T01:04:39;11.30;;;4.03;;
60908;SDS011;46780;48.128;-1.704;2022-08-19T01:07:06;15.88;;;3.92;;
60908;SDS011;46780;48.128;-1.704;2022-08-19T01:09:33;8.95;;;4.07;;
60908;SDS011;46780;48.128;-1.704;2022-08-19T01:12:00;12.70;;;4.35;;
60908;SDS011;46780;48.128;-1.704;2022-08-19T01:14:27;12.57;;;4.30;;
60908;SDS011;46780;48.128;-1.704;2022-08-19T01:16:56;11.13;;;4.40;;
60908;SDS011;46780;48.128;-1.704;2022-08-19T01:19:24;11.55;;;4.70;;
60908;SDS011;46780;48.128;-1.704;2022-08-19T01:24:25;12.40;;;4.40;;
60908;SDS011;46780;48.128;-1.704;2022-08-19T01:26:52;10.93;;;4.20;;
60908;SDS011;46780;48.128;-1.704;2022-08-19T01:29:18;13.77;;;4.78;;
60908;SDS011;46780;48.128;-1.704;2022-08-19T01:31:44;11.18;;;4.35;;
60908;SDS011;46780;48.128;-1.704;2022-08-19T01:34:11;16.05;;;4.80;;
60908;SDS011;46780;48.128;-1.704;2022-08-19T01:36:39;13.70;;;4.53;;
60908;SDS011;46780;48.128;-1.704;2022-08-19T01:39:08;12.93;;;4.80;;
60908;SDS011;46780;48.128;-1.704;2022-08-19T01:41:38;15.02;;;5.50;;
60908;SDS011;46780;48.128;-1.704;2022-08-19T01:44:05;11.73;;;5.00;;
60908;SDS011;46780;48.128;-1.704;2022-08-19T01:46:33;14.68;;;5.75;;
60908;SDS011;46780;48.128;-1.704;2022-08-19T01:48:59;13.15;;;5.18;;
60908;SDS011;46780;48.128;-1.704;2022-08-19T01:51:26;15.55;;;5.80;;
60908;SDS011;46780;48.128;-1.704;2022-08-19T01:53:53;12.18;;;5.20;;
60908;SDS011;46780;48.128;-1.704;2022-08-19T01:56:19;14.45;;;5.15;;
60908;SDS011;46780;48.128;-1.704;2022-08-19T01:58:49;14.63;;;5.45;;
60908;SDS011;46780;48.128;-1.704;2022-08-19T02:01:19;17.00;;;5.43;;
60908;SDS011;46780;48.128;-1.704;2022-08-19T02:03:46;12.68;;;5.63;;
60908;SDS011;46780;48.128;-1.704;2022-08-19T02:06:12;17.05;;;6.00;;
60908;SDS011;46780;48.128;-1.704;2022-08-19T02:08:39;16.75;;;5.75;;
60908;SDS011;46780;48.128;-1.704;2022-08-19T02:11:06;12.68;;;5.97;;
60908;SDS011;46780;48.128;-1.704;2022-08-19T02:13:34;12.95;;;5.97;;
60908;SDS011;46780;48.128;-1.704;2022-08-19T02:16:02;15.80;;;5.93;;
60908;SDS011;46780;48.128;-1.704;2022-08-19T02:18:28;17.00;;;6.20;;
60908;SDS011;46780;48.128;-1.704;2022-08-19T02:20:55;19.23;;;6.38;;
60908;SDS011;46780;48.128;-1.704;2022-08-19T02:23:21;18.55;;;5.72;;
60908;SDS011;46780;48.128;-1.704;2022-08-19T02:25:48;11.38;;;5.40;;
60908;SDS011;46780;48.128;-1.704;2022-08-19T02:28:14;15.27;;;5.90;;
60908;SDS011;46780;48.128;-1.704;2022-08-19T02:30:41;16.35;;;5.93;;
60908;SDS011;46780;48.128;-1.704;2022-08-19T02:33:09;14.95;;;6.20;;
60908;SDS011;46780;48.128;-1.704;2022-08-19T02:35:36;16.58;;;6.20;;
60908;SDS011;46780;48.128;-1.704;2022-08-19T02:38:02;14.25;;;6.00;;
60908;SDS011;46780;48.128;-1.704;2022-08-19T02:40:29;18.13;;;6.07;;
60908;SDS011;46780;48.128;-1.704;2022-08-19T02:42:56;16.35;;;5.82;;
60908;SDS011;46780;48.128;-1.704;2022-08-19T02:45:23;11.18;;;5.32;;
60908;SDS011;46780;48.128;-1.704;2022-08-19T02:47:49;13.05;;;5.90;;
60908;SDS011;46780;48.128;-1.704;2022-08-19T02:50:17;16.73;;;6.32;;
60908;SDS011;46780;48.128;-1.704;2022-08-19T02:52:44;13.35;;;5.88;;
60908;SDS011;46780;48.128;-1.704;2022-08-19T02:55:10;13.27;;;5.82;;
60908;SDS011;46780;48.128;-1.704;2022-08-19T02:57:37;12.40;;;5.57;;
60908;SDS011;46780;48.128;-1.704;2022-08-19T03:00:04;13.40;;;5.38;;
60908;SDS011;46780;48.128;-1.704;2022-08-19T03:02:32;14.98;;;5.85;;
60908;SDS011;46780;48.128;-1.704;2022-08-19T03:04:58;17.52;;;6.05;;
60908;SDS011;46780;48.128;-1.704;2022-08-19T03:07:26;17.08;;;5.93;;
60908;SDS011;46780;48.128;-1.704;2022-08-19T03:09:53;14.23;;;5.70;;
60908;SDS011;46780;48.128;-1.704;2022-08-19T03:12:19;14.50;;;5.97;;
60908;SDS011;46780;48.128;-1.704;2022-08-19T03:14:46;15.98;;;5.60;;
60908;SDS011;46780;48.128;-1.704;2022-08-19T03:17:12;13.23;;;5.50;;
60908;SDS011;46780;48.128;-1.704;2022-08-19T03:19:39;12.93;;;5.35;;
60908;SDS011;46780;48.128;-1.704;2022-08-19T03:22:05;12.20;;;5.28;;
60908;SDS011;46780;48.128;-1.704;2022-08-19T03:24:33;12.20;;;5.45;;
60908;SDS011;46780;48.128;-1.704;2022-08-19T03:27:00;14.93;;;5.65;;
60908;SDS011;46780;48.128;-1.704;2022-08-19T03:29:27;12.68;;;5.50;;
60908;SDS011;46780;48.128;-1.704;2022-08-19T03:31:54;14.50;;;5.18;;
60908;SDS011;46780;48.128;-1.704;2022-08-19T03:34:22;11.57;;;5.50;;
60908;SDS011;46780;48.128;-1.704;2022-08-19T03:36:50;17.13;;;5.47;;
60908;SDS011;46780;48.128;-1.704;2022-08-19T03:39:17;11.93;;;5.18;;
60908;SDS011;46780;48.128;-1.704;2022-08-19T03:41:46;12.05;;;5.15;;
60908;SDS011;46780;48.128;-1.704;2022-08-19T03:44:14;12.60;;;5.20;;
60908;SDS011;46780;48.128;-1.704;2022-08-19T03:46:42;11.52;;;5.00;;
60908;SDS011;46780;48.128;-1.704;2022-08-19T03:49:08;11.63;;;5.07;;
60908;SDS011;46780;48.128;-1.704;2022-08-19T03:51:37;18.08;;;5.15;;
60908;SDS011;46780;48.128;-1.704;2022-08-19T03:54:06;9.95;;;4.80;;
60908;SDS011;46780;48.128;-1.704;2022-08-19T03:56:34;12.27;;;5.13;;
60908;SDS011;46780;48.128;-1.704;2022-08-19T03:59:03;14.45;;;5.55;;
60908;SDS011;46780;48.128;-1.704;2022-08-19T04:01:31;14.23;;;5.32;;
60908;SDS011;46780;48.128;-1.704;2022-08-19T04:03:58;12.98;;;5.93;;
60908;SDS011;46780;48.128;-1.704;2022-08-19T04:06:25;12.93;;;6.05;;
60908;SDS011;46780;48.128;-1.704;2022-08-19T04:08:54;14.38;;;5.55;;
60908;SDS011;46780;48.128;-1.704;2022-08-19T04:11:22;13.10;;;5.80;;
60908;SDS011;46780;48.128;-1.704;2022-08-19T04:13:50;12.77;;;5.35;;
60908;SDS011;46780;48.128;-1.704;2022-08-19T04:16:20;11.30;;;5.53;;
60908;SDS011;46780;48.128;-1.704;2022-08-19T04:18:47;12.57;;;5.88;;
60908;SDS011;46780;48.128;-1.704;2022-08-19T04:21:16;12.40;;;5.65;;
60908;SDS011;46780;48.128;-1.704;2022-08-19T04:23:44;14.85;;;5.60;;
60908;SDS011;46780;48.128;-1.704;2022-08-19T04:26:12;13.25;;;5.43;;
60908;SDS011;46780;48.128;-1.704;2022-08-19T04:28:39;15.35;;;5.75;;
60908;SDS011;46780;48.128;-1.704;2022-08-19T04:31:05;15.38;;;5.60;;
60908;SDS011;46780;48.128;-1.704;2022-08-19T04:33:33;13.13;;;5.80;;
60908;SDS011;46780;48.128;-1.704;2022-08-19T04:35:59;14.82;;;5.95;;
60908;SDS011;46780;48.128;-1.704;2022-08-19T04:38:26;13.48;;;6.20;;
60908;SDS011;46780;48.128;-1.704;2022-08-19T04:40:52;11.30;;;5.75;;
60908;SDS011;46780;48.128;-1.704;2022-08-19T04:43:19;11.55;;;5.65;;
60908;SDS011;46780;48.128;-1.704;2022-08-19T04:45:45;14.45;;;5.75;;
60908;SDS011;46780;48.128;-1.704;2022-08-19T04:48:12;13.95;;;5.70;;
60908;SDS011;46780;48.128;-1.704;2022-08-19T04:50:41;14.23;;;5.20;;
60908;SDS011;46780;48.128;-1.704;2022-08-19T04:53:09;12.18;;;4.95;;
60908;SDS011;46780;48.128;-1.704;2022-08-19T04:55:38;13.73;;;5.70;;
60908;SDS011;46780;48.128;-1.704;2022-08-19T04:58:05;18.67;;;6.20;;
60908;SDS011;46780;48.128;-1.704;2022-08-19T05:00:32;18.42;;;6.03;;
60908;SDS011;46780;48.128;-1.704;2022-08-19T05:02:59;15.18;;;6.40;;
60908;SDS011;46780;48.128;-1.704;2022-08-19T05:05:25;14.95;;;6.03;;
60908;SDS011;46780;48.128;-1.704;2022-08-19T05:07:53;17.60;;;6.63;;
60908;SDS011;46780;48.128;-1.704;2022-08-19T05:10:21;13.10;;;6.25;;
60908;SDS011;46780;48.128;-1.704;2022-08-19T05:12:47;16.00;;;6.45;;
60908;SDS011;46780;48.128;-1.704;2022-08-19T05:15:14;18.38;;;6.63;;
60908;SDS011;46780;48.128;-1.704;2022-08-19T05:17:41;12.90;;;6.28;;
60908;SDS011;46780;48.128;-1.704;2022-08-19T05:20:08;16.25;;;6.40;;
60908;SDS011;46780;48.128;-1.704;2022-08-19T05:22:35;17.15;;;6.68;;
60908;SDS011;46780;48.128;-1.704;2022-08-19T05:25:06;17.95;;;6.32;;
60908;SDS011;46780;48.128;-1.704;2022-08-19T05:27:34;13.00;;;6.47;;
60908;SDS011;46780;48.128;-1.704;2022-08-19T05:30:00;16.58;;;7.00;;
60908;SDS011;46780;48.128;-1.704;2022-08-19T05:32:27;14.05;;;6.63;;
60908;SDS011;46780;48.128;-1.704;2022-08-19T05:34:54;15.32;;;7.03;;
60908;SDS011;46780;48.128;-1.704;2022-08-19T05:37:20;15.18;;;6.65;;
60908;SDS011;46780;48.128;-1.704;2022-08-19T05:39:47;16.45;;;7.18;;
60908;SDS011;46780;48.128;-1.704;2022-08-19T05:42:15;12.50;;;6.45;;
60908;SDS011;46780;48.128;-1.704;2022-08-19T05:44:42;18.13;;;6.80;;
60908;SDS011;46780;48.128;-1.704;2022-08-19T05:47:10;15.05;;;6.78;;
60908;SDS011;46780;48.128;-1.704;2022-08-19T05:49:37;16.20;;;6.70;;
60908;SDS011;46780;48.128;-1.704;2022-08-19T05:52:04;18.15;;;6.90;;
60908;SDS011;46780;48.128;-1.704;2022-08-19T05:54:33;18.17;;;7.22;;
60908;SDS011;46780;48.128;-1.704;2022-08-19T05:57:00;15.52;;;7.60;;
60908;SDS011;46780;48.128;-1.704;2022-08-19T05:59:28;16.05;;;7.03;;
60908;SDS011;46780;48.128;-1.704;2022-08-19T06:01:55;16.67;;;7.22;;
60908;SDS011;46780;48.128;-1.704;2022-08-19T06:04:21;16.63;;;7.57;;
60908;SDS011;46780;48.128;-1.704;2022-08-19T06:06:49;17.48;;;6.97;;
60908;SDS011;46780;48.128;-1.704;2022-08-19T06:09:17;15.43;;;7.50;;
60908;SDS011;46780;48.128;-1.704;2022-08-19T06:11:45;18.15;;;6.80;;
60908;SDS011;46780;48.128;-1.704;2022-08-19T06:14:14;15.98;;;7.03;;
60908;SDS011;46780;48.128;-1.704;2022-08-19T06:16:44;18.73;;;7.60;;
60908;SDS011;46780;48.128;-1.704;2022-08-19T06:19:11;17.52;;;7.10;;
60908;SDS011;46780;48.128;-1.704;2022-08-19T06:21:40;17.48;;;7.13;;
60908;SDS011;46780;48.128;-1.704;2022-08-19T06:24:08;17.00;;;6.60;;
60908;SDS011;46780;48.128;-1.704;2022-08-19T06:26:37;13.93;;;7.38;;
60908;SDS011;46780;48.128;-1.704;2022-08-19T06:29:06;14.40;;;6.93;;
60908;SDS011;46780;48.128;-1.704;2022-08-19T06:31:35;16.80;;;7.00;;
60908;SDS011;46780;48.128;-1.704;2022-08-19T06:34:05;17.65;;;7.00;;
60908;SDS011;46780;48.128;-1.704;2022-08-19T06:36:32;15.88;;;7.25;;
60908;SDS011;46780;48.128;-1.704;2022-08-19T06:39:02;16.17;;;7.07;;
60908;SDS011;46780;48.128;-1.704;2022-08-19T06:41:30;18.95;;;6.85;;
60908;SDS011;46780;48.128;-1.704;2022-08-19T06:43:56;17.20;;;7.15;;
60908;SDS011;46780;48.128;-1.704;2022-08-19T06:46:23;22.48;;;7.18;;
60908;SDS011;46780;48.128;-1.704;2022-08-19T06:48:50;17.00;;;7.18;;
60908;SDS011;46780;48.128;-1.704;2022-08-19T06:51:17;16.50;;;7.43;;
60908;SDS011;46780;48.128;-1.704;2022-08-19T06:53:45;17.05;;;7.28;;
60908;SDS011;46780;48.128;-1.704;2022-08-19T06:56:12;18.30;;;7.40;;
60908;SDS011;46780;48.128;-1.704;2022-08-19T06:58:39;21.85;;;7.95;;
60908;SDS011;46780;48.128;-1.704;2022-08-19T07:01:06;21.33;;;7.35;;
60908;SDS011;46780;48.128;-1.704;2022-08-19T07:03:34;24.58;;;8.07;;
60908;SDS011;46780;48.128;-1.704;2022-08-19T07:06:02;17.95;;;7.80;;
60908;SDS011;46780;48.128;-1.704;2022-08-19T07:08:32;16.80;;;7.00;;
60908;SDS011;46780;48.128;-1.704;2022-08-19T07:10:59;17.30;;;7.10;;
60908;SDS011;46780;48.128;-1.704;2022-08-19T07:13:25;22.35;;;7.55;;
60908;SDS011;46780;48.128;-1.704;2022-08-19T07:15:52;18.60;;;8.02;;
60908;SDS011;46780;48.128;-1.704;2022-08-19T07:18:19;19.33;;;6.80;;
60908;SDS011;46780;48.128;-1.704;2022-08-19T07:20:45;19.10;;;7.28;;
60908;SDS011;46780;48.128;-1.704;2022-08-19T07:23:12;19.55;;;7.82;;
60908;SDS011;46780;48.128;-1.704;2022-08-19T07:25:40;17.73;;;7.30;;
60908;SDS011;46780;48.128;-1.704;2022-08-19T07:28:08;15.80;;;6.85;;
60908;SDS011;46780;48.128;-1.704;2022-08-19T07:30:35;19.30;;;7.57;;
60908;SDS011;46780;48.128;-1.704;2022-08-19T07:33:02;21.38;;;7.45;;
60908;SDS011;46780;48.128;-1.704;2022-08-19T07:35:29;20.08;;;6.97;;
60908;SDS011;46780;48.128;-1.704;2022-08-19T07:37:56;20.30;;;7.63;;
60908;SDS011;46780;48.128;-1.704;2022-08-19T07:40:22;23.00;;;6.63;;
60908;SDS011;46780;48.128;-1.704;2022-08-19T07:42:50;26.08;;;8.20;;
60908;SDS011;46780;48.128;-1.704;2022-08-19T07:45:17;15.73;;;7.10;;
60908;SDS011;46780;48.128;-1.704;2022-08-19T07:47:43;23.17;;;7.82;;
60908;SDS011;46780;48.128;-1.704;2022-08-19T07:50:10;20.90;;;7.63;;
60908;SDS011;46780;48.128;-1.704;2022-08-19T07:52:37;20.27;;;7.38;;
60908;SDS011;46780;48.128;-1.704;2022-08-19T07:55:05;28.08;;;8.57;;
60908;SDS011;46780;48.128;-1.704;2022-08-19T07:57:33;22.20;;;8.10;;
60908;SDS011;46780;48.128;-1.704;2022-08-19T08:00:02;27.48;;;7.18;;
60908;SDS011;46780;48.128;-1.704;2022-08-19T08:02:30;24.55;;;7.68;;
60908;SDS011;46780;48.128;-1.704;2022-08-19T08:04:56;28.15;;;8.07;;
60908;SDS011;46780;48.128;-1.704;2022-08-19T08:07:23;22.30;;;6.88;;
60908;SDS011;46780;48.128;-1.704;2022-08-19T08:09:49;21.15;;;7.05;;
60908;SDS011;46780;48.128;-1.704;2022-08-19T08:12:18;24.02;;;9.25;;
60908;SDS011;46780;48.128;-1.704;2022-08-19T08:14:48;26.58;;;9.43;;
60908;SDS011;46780;48.128;-1.704;2022-08-19T08:17:18;24.17;;;6.70;;
60908;SDS011;46780;48.128;-1.704;2022-08-19T08:19:48;23.50;;;7.05;;
60908;SDS011;46780;48.128;-1.704;2022-08-19T08:22:16;22.67;;;7.50;;
60908;SDS011;46780;48.128;-1.704;2022-08-19T08:24:44;16.98;;;7.13;;
60908;SDS011;46780;48.128;-1.704;2022-08-19T08:27:11;25.50;;;8.60;;
60908;SDS011;46780;48.128;-1.704;2022-08-19T08:29:37;19.40;;;7.68;;
60908;SDS011;46780;48.128;-1.704;2022-08-19T08:32:04;22.83;;;8.10;;
60908;SDS011;46780;48.128;-1.704;2022-08-19T08:34:32;21.63;;;7.45;;
60908;SDS011;46780;48.128;-1.704;2022-08-19T08:36:58;17.20;;;6.88;;
60908;SDS011;46780;48.128;-1.704;2022-08-19T08:39:25;20.77;;;7.40;;
60908;SDS011;46780;48.128;-1.704;2022-08-19T08:41:53;17.10;;;6.65;;
60908;SDS011;46780;48.128;-1.704;2022-08-19T08:44:28;20.20;;;7.07;;
60908;SDS011;46780;48.128;-1.704;2022-08-19T08:47:09;22.52;;;6.57;;
60908;SDS011;46780;48.128;-1.704;2022-08-19T08:49:42;19.40;;;7.20;;
60908;SDS011;46780;48.128;-1.704;2022-08-19T08:52:13;21.75;;;6.45;;
60908;SDS011;46780;48.128;-1.704;2022-08-19T08:54:46;22.27;;;6.28;;
60908;SDS011;46780;48.128;-1.704;2022-08-19T08:57:15;19.85;;;6.53;;
60908;SDS011;46780;48.128;-1.704;2022-08-19T08:59:46;16.70;;;5.65;;
60908;SDS011;46780;48.128;-1.704;2022-08-19T09:02:14;19.25;;;6.05;;
60908;SDS011;46780;48.128;-1.704;2022-08-19T09:04:42;23.10;;;6.78;;
60908;SDS011;46780;48.128;-1.704;2022-08-19T09:07:14;18.70;;;6.63;;
60908;SDS011;46780;48.128;-1.704;2022-08-19T09:09:49;16.98;;;6.15;;
60908;SDS011;46780;48.128;-1.704;2022-08-19T09:12:22;19.02;;;6.60;;
60908;SDS011;46780;48.128;-1.704;2022-08-19T09:15:03;20.05;;;6.75;;
60908;SDS011;46780;48.128;-1.704;2022-08-19T09:17:31;16.60;;;6.65;;
60908;SDS011;46780;48.128;-1.704;2022-08-19T09:20:02;24.33;;;7.82;;
60908;SDS011;46780;48.128;-1.704;2022-08-19T09:22:31;21.55;;;7.15;;
60908;SDS011;46780;48.128;-1.704;2022-08-19T09:24:57;20.10;;;6.15;;
60908;SDS011;46780;48.128;-1.704;2022-08-19T09:27:25;19.92;;;6.20;;
60908;SDS011;46780;48.128;-1.704;2022-08-19T09:29:52;24.20;;;7.45;;
60908;SDS011;46780;48.128;-1.704;2022-08-19T09:32:19;20.30;;;6.50;;
60908;SDS011;46780;48.128;-1.704;2022-08-19T09:34:46;22.20;;;8.20;;
60908;SDS011;46780;48.128;-1.704;2022-08-19T09:37:14;18.77;;;6.60;;
60908;SDS011;46780;48.128;-1.704;2022-08-19T09:39:41;15.60;;;6.30;;
60908;SDS011;46780;48.128;-1.704;2022-08-19T09:42:07;22.02;;;6.97;;
60908;SDS011;46780;48.128;-1.704;2022-08-19T09:44:34;17.70;;;5.93;;
60908;SDS011;46780;48.128;-1.704;2022-08-19T09:47:00;21.45;;;6.03;;
60908;SDS011;46780;48.128;-1.704;2022-08-19T09:49:27;17.10;;;5.15;;
60908;SDS011;46780;48.128;-1.704;2022-08-19T09:51:53;21.65;;;6.40;;
60908;SDS011;46780;48.128;-1.704;2022-08-19T09:54:22;16.48;;;5.45;;
60908;SDS011;46780;48.128;-1.704;2022-08-19T09:56:48;17.52;;;5.78;;
60908;SDS011;46780;48.128;-1.704;2022-08-19T09:59:15;23.92;;;6.60;;
60908;SDS011;46780;48.128;-1.704;2022-08-19T10:01:42;18.83;;;5.85;;
60908;SDS011;46780;48.128;-1.704;2022-08-19T10:04:09;20.23;;;7.13;;
60908;SDS011;46780;48.128;-1.704;2022-08-19T10:06:37;19.02;;;6.40;;
60908;SDS011;46780;48.128;-1.704;2022-08-19T10:09:04;16.00;;;5.50;;
60908;SDS011;46780;48.128;-1.704;2022-08-19T10:11:33;16.45;;;4.57;;
60908;SDS011;46780;48.128;-1.704;2022-08-19T10:14:01;16.60;;;5.00;;
60908;SDS011;46780;48.128;-1.704;2022-08-19T10:16:28;21.38;;;5.63;;
60908;SDS011;46780;48.128;-1.704;2022-08-19T10:18:54;14.75;;;5.07;;
60908;SDS011;46780;48.128;-1.704;2022-08-19T10:21:22;21.90;;;5.60;;
60908;SDS011;46780;48.128;-1.704;2022-08-19T10:23:51;20.38;;;5.70;;
60908;SDS011;46780;48.128;-1.704;2022-08-19T10:26:20;18.23;;;5.10;;
60908;SDS011;46780;48.128;-1.704;2022-08-19T10:28:49;19.07;;;4.60;;
60908;SDS011;46780;48.128;-1.704;2022-08-19T10:31:16;14.48;;;4.47;;
60908;SDS011;46780;48.128;-1.704;2022-08-19T10:33:45;12.80;;;4.50;;
60908;SDS011;46780;48.128;-1.704;2022-08-19T10:36:13;18.02;;;5.00;;
60908;SDS011;46780;48.128;-1.704;2022-08-19T10:38:43;13.88;;;3.88;;
60908;SDS011;46780;48.128;-1.704;2022-08-19T10:41:11;20.02;;;3.90;;
60908;SDS011;46780;48.128;-1.704;2022-08-19T10:43:39;17.38;;;4.47;;
60908;SDS011;46780;48.128;-1.704;2022-08-19T10:46:08;14.77;;;4.13;;
60908;SDS011;46780;48.128;-1.704;2022-08-19T10:48:36;15.40;;;3.95;;
60908;SDS011;46780;48.128;-1.704;2022-08-19T10:51:03;16.60;;;4.25;;
60908;SDS011;46780;48.128;-1.704;2022-08-19T10:53:30;11.80;;;3.67;;
60908;SDS011;46780;48.128;-1.704;2022-08-19T10:55:56;12.90;;;3.75;;
60908;SDS011;46780;48.128;-1.704;2022-08-19T10:58:23;12.38;;;3.60;;
60908;SDS011;46780;48.128;-1.704;2022-08-19T11:00:53;16.77;;;4.63;;
60908;SDS011;46780;48.128;-1.704;2022-08-19T11:03:22;13.43;;;3.58;;
60908;SDS011;46780;48.128;-1.704;2022-08-19T11:05:56;14.90;;;4.18;;
60908;SDS011;46780;48.128;-1.704;2022-08-19T11:08:24;11.43;;;3.80;;
60908;SDS011;46780;48.128;-1.704;2022-08-19T11:10:51;10.98;;;3.72;;
60908;SDS011;46780;48.128;-1.704;2022-08-19T11:13:19;10.95;;;3.47;;
60908;SDS011;46780;48.128;-1.704;2022-08-19T11:15:45;18.67;;;5.47;;
60908;SDS011;46780;48.128;-1.704;2022-08-19T11:18:12;12.13;;;5.50;;
60908;SDS011;46780;48.128;-1.704;2022-08-19T11:20:40;11.38;;;3.67;;
60908;SDS011;46780;48.128;-1.704;2022-08-19T11:23:06;19.02;;;5.05;;
60908;SDS011;46780;48.128;-1.704;2022-08-19T11:25:33;14.40;;;4.55;;
60908;SDS011;46780;48.128;-1.704;2022-08-19T11:27:59;11.73;;;4.60;;
60908;SDS011;46780;48.128;-1.704;2022-08-19T11:30:26;10.85;;;3.40;;
60908;SDS011;46780;48.128;-1.704;2022-08-19T11:32:52;10.98;;;3.38;;
60908;SDS011;46780;48.128;-1.704;2022-08-19T11:35:19;12.40;;;3.30;;
60908;SDS011;46780;48.128;-1.704;2022-08-19T11:37:47;8.77;;;2.92;;
60908;SDS011;46780;48.128;-1.704;2022-08-19T11:40:13;11.30;;;3.08;;
60908;SDS011;46780;48.128;-1.704;2022-08-19T11:42:40;11.63;;;2.80;;
60908;SDS011;46780;48.128;-1.704;2022-08-19T11:45:07;8.27;;;2.40;;
60908;SDS011;46780;48.128;-1.704;2022-08-19T11:47:34;8.73;;;2.67;;
60908;SDS011;46780;48.128;-1.704;2022-08-19T11:50:00;9.30;;;2.63;;
60908;SDS011;46780;48.128;-1.704;2022-08-19T11:52:27;9.13;;;2.38;;
60908;SDS011;46780;48.128;-1.704;2022-08-19T11:54:55;7.45;;;2.60;;
60908;SDS011;46780;48.128;-1.704;2022-08-19T11:57:21;10.23;;;2.33;;
60908;SDS011;46780;48.128;-1.704;2022-08-19T11:59:48;9.75;;;2.30;;
60908;SDS011;46780;48.128;-1.704;2022-08-19T12:02:15;6.50;;;2.28;;
60908;SDS011;46780;48.128;-1.704;2022-08-19T12:04:41;10.85;;;2.50;;
60908;SDS011;46780;48.128;-1.704;2022-08-19T12:07:08;9.43;;;2.53;;
60908;SDS011;46780;48.128;-1.704;2022-08-19T12:09:34;9.15;;;2.45;;
60908;SDS011;46780;48.128;-1.704;2022-08-19T12:12:03;6.68;;;1.88;;
60908;SDS011;46780;48.128;-1.704;2022-08-19T12:14:29;10.73;;;2.28;;
60908;SDS011;46780;48.128;-1.704;2022-08-19T12:16:56;5.57;;;2.05;;
60908;SDS011;46780;48.128;-1.704;2022-08-19T12:19:23;7.72;;;2.38;;
60908;SDS011;46780;48.128;-1.704;2022-08-19T12:21:50;10.98;;;2.60;;
60908;SDS011;46780;48.128;-1.704;2022-08-19T12:24:17;11.15;;;2.50;;
60908;SDS011;46780;48.128;-1.704;2022-08-19T12:26:44;11.43;;;2.80;;
60908;SDS011;46780;48.128;-1.704;2022-08-19T12:29:11;10.52;;;2.70;;
60908;SDS011;46780;48.128;-1.704;2022-08-19T12:31:38;9.35;;;2.53;;
60908;SDS011;46780;48.128;-1.704;2022-08-19T12:34:05;11.30;;;2.88;;
60908;SDS011;46780;48.128;-1.704;2022-08-19T12:36:32;9.60;;;2.60;;
60908;SDS011;46780;48.128;-1.704;2022-08-19T12:38:58;9.32;;;2.88;;
60908;SDS011;46780;48.128;-1.704;2022-08-19T12:41:25;10.07;;;2.47;;
60908;SDS011;46780;48.128;-1.704;2022-08-19T12:43:52;7.63;;;2.63;;
60908;SDS011;46780;48.128;-1.704;2022-08-19T12:46:20;5.22;;;2.28;;
60908;SDS011;46780;48.128;-1.704;2022-08-19T12:48:47;15.13;;;2.63;;
60908;SDS011;46780;48.128;-1.704;2022-08-19T12:51:15;8.82;;;2.40;;
60908;SDS011;46780;48.128;-1.704;2022-08-19T12:53:43;6.75;;;2.40;;
60908;SDS011;46780;48.128;-1.704;2022-08-19T12:56:10;7.20;;;2.45;;
60908;SDS011;46780;48.128;-1.704;2022-08-19T12:58:38;9.75;;;2.70;;
60908;SDS011;46780;48.128;-1.704;2022-08-19T13:01:08;9.35;;;2.45;;
60908;SDS011;46780;48.128;-1.704;2022-08-19T13:03:37;6.82;;;2.10;;
60908;SDS011;46780;48.128;-1.704;2022-08-19T13:06:04;8.65;;;2.47;;
60908;SDS011;46780;48.128;-1.704;2022-08-19T13:08:31;7.97;;;2.40;;
60908;SDS011;46780;48.128;-1.704;2022-08-19T13:10:57;5.15;;;2.05;;
60908;SDS011;46780;48.128;-1.704;2022-08-19T13:13:33;7.20;;;2.30;;
60908;SDS011;46780;48.128;-1.704;2022-08-19T13:16:00;12.35;;;2.42;;
60908;SDS011;46780;48.128;-1.704;2022-08-19T13:18:26;7.03;;;2.40;;
60908;SDS011;46780;48.128;-1.704;2022-08-19T13:20:54;7.85;;;2.10;;
60908;SDS011;46780;48.128;-1.704;2022-08-19T13:23:21;6.88;;;2.38;;
60908;SDS011;46780;48.128;-1.704;2022-08-19T13:25:54;9.95;;;2.30;;
60908;SDS011;46780;48.128;-1.704;2022-08-19T13:28:22;6.78;;;2.13;;
60908;SDS011;46780;48.128;-1.704;2022-08-19T13:30:48;8.70;;;2.80;;
60908;SDS011;46780;48.128;-1.704;2022-08-19T13:33:15;7.03;;;2.20;;
60908;SDS011;46780;48.128;-1.704;2022-08-19T13:35:43;10.05;;;2.50;;
60908;SDS011;46780;48.128;-1.704;2022-08-19T13:38:13;8.27;;;2.60;;
60908;SDS011;46780;48.128;-1.704;2022-08-19T13:40:41;10.70;;;2.65;;
60908;SDS011;46780;48.128;-1.704;2022-08-19T13:43:08;11.10;;;2.83;;
60908;SDS011;46780;48.128;-1.704;2022-08-19T13:45:35;10.20;;;2.70;;
60908;SDS011;46780;48.128;-1.704;2022-08-19T13:48:02;6.05;;;1.80;;
60908;SDS011;46780;48.128;-1.704;2022-08-19T13:50:30;7.30;;;1.02;;
60908;SDS011;46780;48.128;-1.704;2022-08-19T13:52:57;4.57;;;0.85;;
60908;SDS011;46780;48.128;-1.704;2022-08-19T13:55:26;3.38;;;0.65;;
60908;SDS011;46780;48.128;-1.704;2022-08-19T13:57:53;3.08;;;0.70;;
60908;SDS011;46780;48.128;-1.704;2022-08-19T14:00:22;4.20;;;0.55;;
60908;SDS011;46780;48.128;-1.704;2022-08-19T14:02:51;8.48;;;0.68;;
60908;SDS011;46780;48.128;-1.704;2022-08-19T14:05:19;3.83;;;0.57;;
60908;SDS011;46780;48.128;-1.704;2022-08-19T14:07:46;7.47;;;0.90;;
60908;SDS011;46780;48.128;-1.704;2022-08-19T14:10:14;3.28;;;0.85;;
60908;SDS011;46780;48.128;-1.704;2022-08-19T14:12:42;3.05;;;0.98;;
60908;SDS011;46780;48.128;-1.704;2022-08-19T14:15:10;9.82;;;1.55;;
60908;SDS011;46780;48.128;-1.704;2022-08-19T14:17:37;3.55;;;0.88;;
60908;SDS011;46780;48.128;-1.704;2022-08-19T14:20:05;3.67;;;0.77;;
60908;SDS011;46780;48.128;-1.704;2022-08-19T14:22:34;4.57;;;1.77;;
60908;SDS011;46780;48.128;-1.704;2022-08-19T14:25:02;6.93;;;2.60;;
60908;SDS011;46780;48.128;-1.704;2022-08-19T14:27:29;5.55;;;2.17;;